sensor_id;sensor_type;location;lat;lon;timestamp;P1;durP1;ratioP1;P2;durP2;ratioP2
15230;SDS011;32569;51.762;8.564;2023-05-06T00:01:43;19.93;;;16.10;;
15230;SDS011;32569;51.762;8.564;2023-05-06T00:04:11;25.20;;;18.90;;
15230;SDS011;32569;51.762;8.564;2023-05-06T00:06:39;28.73;;;21.40;;
15230;SDS011;32569;51.762;8.564;2023-05-06T00:09:06;25.70;;;21.87;;
15230;SDS011;32569;51.762;8.564;2023-05-06T00:11:33;24.83;;;21.47;;
15230;SDS011;32569;51.762;8.564;2023-05-06T00:14:00;23.77;;;20.37;;
15230;SDS011;32569;51.762;8.564;2023-05-06T00:16:26;26.13;;;21.60;;
15230;SDS011;32569;51.762;8.564;2023-05-06T00:18:53;24.23;;;18.70;;
15230;SDS011;32569;51.762;8.564;2023-05-06T00:21:21;22.67;;;17.37;;
15230;SDS011;32569;51.762;8.564;2023-05-06T00:23:47;21.97;;;15.93;;
15230;SDS011;32569;51.762;8.564;2023-05-06T00:26:14;23.83;;;16.67;;
15230;SDS011;32569;51.762;8.564;2023-05-06T00:28:41;23.93;;;18.20;;
15230;SDS011;32569;51.762;8.564;2023-05-06T00:31:07;22.60;;;15.97;;
15230;SDS011;32569;51.762;8.564;2023-05-06T00:33:34;26.20;;;19.13;;
15230;SDS011;32569;51.762;8.564;2023-05-06T00:36:01;24.83;;;17.90;;
15230;SDS011;32569;51.762;8.564;2023-05-06T00:38:29;24.60;;;17.90;;
15230;SDS011;32569;51.762;8.564;2023-05-06T00:40:55;24.93;;;17.73;;
15230;SDS011;32569;51.762;8.564;2023-05-06T00:43:22;24.30;;;18.17;;
15230;SDS011;32569;51.762;8.564;2023-05-06T00:45:48;25.70;;;18.17;;
15230;SDS011;32569;51.762;8.564;2023-05-06T00:48:16;25.83;;;18.73;;
15230;SDS011;32569;51.762;8.564;2023-05-06T00:50:43;27.63;;;19.63;;
15230;SDS011;32569;51.762;8.564;2023-05-06T00:53:10;25.73;;;19.03;;
15230;SDS011;32569;51.762;8.564;2023-05-06T00:55:39;31.83;;;19.83;;
15230;SDS011;32569;51.762;8.564;2023-05-06T00:58:06;28.87;;;19.90;;
15230;SDS011;32569;51.762;8.564;2023-05-06T01:00:33;28.40;;;19.90;;
15230;SDS011;32569;51.762;8.564;2023-05-06T01:02:59;26.87;;;19.20;;
15230;SDS011;32569;51.762;8.564;2023-05-06T01:05:28;28.50;;;19.23;;
15230;SDS011;32569;51.762;8.564;2023-05-06T01:07:59;31.40;;;20.13;;
15230;SDS011;32569;51.762;8.564;2023-05-06T01:10:40;31.63;;;21.47;;
15230;SDS011;32569;51.762;8.564;2023-05-06T01:13:12;32.37;;;23.33;;
15230;SDS011;32569;51.762;8.564;2023-05-06T01:15:45;33.23;;;22.33;;
15230;SDS011;32569;51.762;8.564;2023-05-06T01:18:16;29.87;;;21.10;;
15230;SDS011;32569;51.762;8.564;2023-05-06T01:20:46;31.27;;;21.13;;
15230;SDS011;32569;51.762;8.564;2023-05-06T01:23:16;34.43;;;22.30;;
15230;SDS011;32569;51.762;8.564;2023-05-06T01:25:43;29.90;;;20.80;;
15230;SDS011;32569;51.762;8.564;2023-05-06T01:28:10;34.20;;;20.70;;
15230;SDS011;32569;51.762;8.564;2023-05-06T01:30:39;32.80;;;22.00;;
15230;SDS011;32569;51.762;8.564;2023-05-06T01:33:15;29.20;;;20.23;;
15230;SDS011;32569;51.762;8.564;2023-05-06T01:35:51;30.47;;;20.77;;
15230;SDS011;32569;51.762;8.564;2023-05-06T01:38:28;30.27;;;20.43;;
15230;SDS011;32569;51.762;8.564;2023-05-06T01:40:59;27.47;;;19.13;;
15230;SDS011;32569;51.762;8.564;2023-05-06T01:43:28;30.67;;;20.40;;
15230;SDS011;32569;51.762;8.564;2023-05-06T01:45:59;28.57;;;18.87;;
15230;SDS011;32569;51.762;8.564;2023-05-06T01:48:28;30.53;;;20.03;;
15230;SDS011;32569;51.762;8.564;2023-05-06T01:50:57;32.27;;;20.97;;
15230;SDS011;32569;51.762;8.564;2023-05-06T01:53:23;29.87;;;20.07;;
15230;SDS011;32569;51.762;8.564;2023-05-06T01:55:51;28.37;;;18.37;;
15230;SDS011;32569;51.762;8.564;2023-05-06T01:58:18;29.50;;;19.10;;
15230;SDS011;32569;51.762;8.564;2023-05-06T02:00:44;30.70;;;19.83;;
15230;SDS011;32569;51.762;8.564;2023-05-06T02:03:11;29.73;;;19.43;;
15230;SDS011;32569;51.762;8.564;2023-05-06T02:05:38;31.17;;;19.50;;
15230;SDS011;32569;51.762;8.564;2023-05-06T02:08:04;28.60;;;18.83;;
15230;SDS011;32569;51.762;8.564;2023-05-06T02:10:31;31.47;;;19.93;;
15230;SDS011;32569;51.762;8.564;2023-05-06T02:12:59;32.70;;;20.73;;
15230;SDS011;32569;51.762;8.564;2023-05-06T02:15:25;29.80;;;20.30;;
15230;SDS011;32569;51.762;8.564;2023-05-06T02:17:54;32.10;;;20.43;;
15230;SDS011;32569;51.762;8.564;2023-05-06T02:20:23;34.10;;;22.00;;
15230;SDS011;32569;51.762;8.564;2023-05-06T02:22:50;31.20;;;20.37;;
15230;SDS011;32569;51.762;8.564;2023-05-06T02:25:17;33.33;;;20.90;;
15230;SDS011;32569;51.762;8.564;2023-05-06T02:27:43;32.37;;;19.83;;
15230;SDS011;32569;51.762;8.564;2023-05-06T02:30:11;36.07;;;21.13;;
15230;SDS011;32569;51.762;8.564;2023-05-06T02:32:38;35.97;;;22.00;;
15230;SDS011;32569;51.762;8.564;2023-05-06T02:35:06;37.63;;;21.40;;
15230;SDS011;32569;51.762;8.564;2023-05-06T02:37:33;35.20;;;21.97;;
15230;SDS011;32569;51.762;8.564;2023-05-06T02:39:59;33.50;;;20.10;;
15230;SDS011;32569;51.762;8.564;2023-05-06T02:42:26;37.97;;;21.67;;
15230;SDS011;32569;51.762;8.564;2023-05-06T02:44:53;35.63;;;21.83;;
15230;SDS011;32569;51.762;8.564;2023-05-06T02:47:21;34.03;;;21.67;;
15230;SDS011;32569;51.762;8.564;2023-05-06T02:49:47;32.97;;;21.03;;
15230;SDS011;32569;51.762;8.564;2023-05-06T02:52:14;32.23;;;20.53;;
15230;SDS011;32569;51.762;8.564;2023-05-06T02:54:40;29.00;;;19.70;;
15230;SDS011;32569;51.762;8.564;2023-05-06T02:57:07;32.50;;;19.77;;
15230;SDS011;32569;51.762;8.564;2023-05-06T02:59:34;33.33;;;21.00;;
15230;SDS011;32569;51.762;8.564;2023-05-06T03:02:00;28.37;;;19.60;;
15230;SDS011;32569;51.762;8.564;2023-05-06T03:04:28;30.87;;;19.23;;
15230;SDS011;32569;51.762;8.564;2023-05-06T03:06:55;27.73;;;19.57;;
15230;SDS011;32569;51.762;8.564;2023-05-06T03:09:22;29.40;;;18.87;;
15230;SDS011;32569;51.762;8.564;2023-05-06T03:11:54;33.37;;;19.27;;
15230;SDS011;32569;51.762;8.564;2023-05-06T03:14:21;31.17;;;19.37;;
15230;SDS011;32569;51.762;8.564;2023-05-06T03:16:48;30.50;;;20.90;;
15230;SDS011;32569;51.762;8.564;2023-05-06T03:19:14;27.33;;;18.30;;
15230;SDS011;32569;51.762;8.564;2023-05-06T03:21:42;29.70;;;19.20;;
15230;SDS011;32569;51.762;8.564;2023-05-06T03:24:09;29.20;;;18.77;;
15230;SDS011;32569;51.762;8.564;2023-05-06T03:26:36;29.20;;;18.90;;
15230;SDS011;32569;51.762;8.564;2023-05-06T03:29:03;29.73;;;20.13;;
15230;SDS011;32569;51.762;8.564;2023-05-06T03:31:29;27.40;;;18.13;;
15230;SDS011;32569;51.762;8.564;2023-05-06T03:33:56;31.77;;;20.00;;
15230;SDS011;32569;51.762;8.564;2023-05-06T03:36:23;32.10;;;20.57;;
15230;SDS011;32569;51.762;8.564;2023-05-06T03:38:52;29.27;;;19.17;;
15230;SDS011;32569;51.762;8.564;2023-05-06T03:41:19;31.00;;;20.63;;
15230;SDS011;32569;51.762;8.564;2023-05-06T03:43:46;30.40;;;20.10;;
15230;SDS011;32569;51.762;8.564;2023-05-06T03:46:12;27.70;;;17.93;;
15230;SDS011;32569;51.762;8.564;2023-05-06T03:48:39;27.50;;;18.07;;
15230;SDS011;32569;51.762;8.564;2023-05-06T03:51:06;27.60;;;17.57;;
15230;SDS011;32569;51.762;8.564;2023-05-06T03:53:32;26.00;;;18.20;;
15230;SDS011;32569;51.762;8.564;2023-05-06T03:56:00;25.50;;;16.73;;
15230;SDS011;32569;51.762;8.564;2023-05-06T03:58:27;26.80;;;17.63;;
15230;SDS011;32569;51.762;8.564;2023-05-06T04:00:53;28.60;;;19.43;;
15230;SDS011;32569;51.762;8.564;2023-05-06T04:03:20;39.53;;;20.80;;
15230;SDS011;32569;51.762;8.564;2023-05-06T04:05:47;33.90;;;18.67;;
15230;SDS011;32569;51.762;8.564;2023-05-06T04:08:15;34.60;;;19.57;;
15230;SDS011;32569;51.762;8.564;2023-05-06T04:10:42;54.63;;;21.60;;
15230;SDS011;32569;51.762;8.564;2023-05-06T04:13:10;52.53;;;20.90;;
15230;SDS011;32569;51.762;8.564;2023-05-06T04:15:36;55.30;;;21.63;;
15230;SDS011;32569;51.762;8.564;2023-05-06T04:18:03;52.83;;;20.33;;
15230;SDS011;32569;51.762;8.564;2023-05-06T04:20:31;57.37;;;21.47;;
15230;SDS011;32569;51.762;8.564;2023-05-06T04:22:58;120.93;;;24.00;;
15230;SDS011;32569;51.762;8.564;2023-05-06T04:25:24;179.40;;;24.87;;
15230;SDS011;32569;51.762;8.564;2023-05-06T04:27:51;90.20;;;22.07;;
15230;SDS011;32569;51.762;8.564;2023-05-06T04:30:19;93.37;;;21.83;;
15230;SDS011;32569;51.762;8.564;2023-05-06T04:32:46;97.17;;;21.67;;
15230;SDS011;32569;51.762;8.564;2023-05-06T04:35:13;67.83;;;20.03;;
15230;SDS011;32569;51.762;8.564;2023-05-06T04:37:40;78.13;;;20.20;;
15230;SDS011;32569;51.762;8.564;2023-05-06T04:40:07;78.07;;;18.33;;
15230;SDS011;32569;51.762;8.564;2023-05-06T04:42:35;74.27;;;19.13;;
15230;SDS011;32569;51.762;8.564;2023-05-06T04:45:02;40.00;;;18.40;;
15230;SDS011;32569;51.762;8.564;2023-05-06T04:47:30;68.27;;;19.07;;
15230;SDS011;32569;51.762;8.564;2023-05-06T04:49:57;71.80;;;18.97;;
15230;SDS011;32569;51.762;8.564;2023-05-06T04:52:24;70.87;;;19.30;;
15230;SDS011;32569;51.762;8.564;2023-05-06T04:54:50;61.13;;;18.20;;
15230;SDS011;32569;51.762;8.564;2023-05-06T04:57:17;59.33;;;18.17;;
15230;SDS011;32569;51.762;8.564;2023-05-06T04:59:43;31.17;;;17.03;;
15230;SDS011;32569;51.762;8.564;2023-05-06T05:02:10;74.77;;;19.27;;
15230;SDS011;32569;51.762;8.564;2023-05-06T05:04:38;71.13;;;18.60;;
15230;SDS011;32569;51.762;8.564;2023-05-06T05:07:05;60.87;;;18.13;;
15230;SDS011;32569;51.762;8.564;2023-05-06T05:09:32;49.13;;;19.23;;
15230;SDS011;32569;51.762;8.564;2023-05-06T05:11:59;47.37;;;18.13;;
15230;SDS011;32569;51.762;8.564;2023-05-06T05:14:26;62.23;;;19.13;;
15230;SDS011;32569;51.762;8.564;2023-05-06T05:16:53;53.47;;;17.23;;
15230;SDS011;32569;51.762;8.564;2023-05-06T05:19:20;53.43;;;18.00;;
15230;SDS011;32569;51.762;8.564;2023-05-06T05:21:48;57.13;;;18.63;;
15230;SDS011;32569;51.762;8.564;2023-05-06T05:24:14;26.23;;;16.87;;
15230;SDS011;32569;51.762;8.564;2023-05-06T05:26:41;42.43;;;18.60;;
15230;SDS011;32569;51.762;8.564;2023-05-06T05:29:08;38.53;;;17.90;;
15230;SDS011;32569;51.762;8.564;2023-05-06T05:31:34;77.43;;;19.93;;
15230;SDS011;32569;51.762;8.564;2023-05-06T05:34:01;43.53;;;18.33;;
15230;SDS011;32569;51.762;8.564;2023-05-06T05:36:27;38.13;;;18.90;;
15230;SDS011;32569;51.762;8.564;2023-05-06T05:38:55;32.53;;;18.90;;
15230;SDS011;32569;51.762;8.564;2023-05-06T05:41:22;32.10;;;19.57;;
15230;SDS011;32569;51.762;8.564;2023-05-06T05:43:50;34.43;;;19.30;;
15230;SDS011;32569;51.762;8.564;2023-05-06T05:46:17;30.63;;;19.83;;
15230;SDS011;32569;51.762;8.564;2023-05-06T05:48:43;30.33;;;18.97;;
15230;SDS011;32569;51.762;8.564;2023-05-06T05:51:10;30.50;;;18.67;;
15230;SDS011;32569;51.762;8.564;2023-05-06T05:53:36;24.20;;;17.50;;
15230;SDS011;32569;51.762;8.564;2023-05-06T05:56:05;27.10;;;17.50;;
15230;SDS011;32569;51.762;8.564;2023-05-06T05:58:31;29.00;;;17.37;;
15230;SDS011;32569;51.762;8.564;2023-05-06T06:00:59;26.77;;;17.87;;
15230;SDS011;32569;51.762;8.564;2023-05-06T06:03:25;26.37;;;17.20;;
15230;SDS011;32569;51.762;8.564;2023-05-06T06:05:52;27.60;;;17.97;;
15230;SDS011;32569;51.762;8.564;2023-05-06T06:08:19;28.10;;;18.37;;
15230;SDS011;32569;51.762;8.564;2023-05-06T06:10:46;29.40;;;18.77;;
15230;SDS011;32569;51.762;8.564;2023-05-06T06:13:14;27.60;;;18.10;;
15230;SDS011;32569;51.762;8.564;2023-05-06T06:15:40;32.03;;;20.10;;
15230;SDS011;32569;51.762;8.564;2023-05-06T06:18:07;31.03;;;19.37;;
15230;SDS011;32569;51.762;8.564;2023-05-06T06:20:34;31.53;;;19.43;;
15230;SDS011;32569;51.762;8.564;2023-05-06T06:23:02;32.43;;;20.73;;
15230;SDS011;32569;51.762;8.564;2023-05-06T06:25:29;35.10;;;20.80;;
15230;SDS011;32569;51.762;8.564;2023-05-06T06:27:55;32.97;;;20.43;;
15230;SDS011;32569;51.762;8.564;2023-05-06T06:30:23;31.80;;;19.97;;
15230;SDS011;32569;51.762;8.564;2023-05-06T06:32:51;34.77;;;21.30;;
15230;SDS011;32569;51.762;8.564;2023-05-06T06:35:18;33.20;;;21.60;;
15230;SDS011;32569;51.762;8.564;2023-05-06T06:37:45;31.13;;;20.87;;
15230;SDS011;32569;51.762;8.564;2023-05-06T06:40:12;30.60;;;20.87;;
15230;SDS011;32569;51.762;8.564;2023-05-06T06:42:39;28.53;;;19.03;;
15230;SDS011;32569;51.762;8.564;2023-05-06T06:45:06;25.63;;;17.33;;
15230;SDS011;32569;51.762;8.564;2023-05-06T06:47:35;25.00;;;17.70;;
15230;SDS011;32569;51.762;8.564;2023-05-06T06:50:02;22.70;;;15.57;;
15230;SDS011;32569;51.762;8.564;2023-05-06T06:52:29;23.80;;;16.57;;
15230;SDS011;32569;51.762;8.564;2023-05-06T06:54:56;23.33;;;16.50;;
15230;SDS011;32569;51.762;8.564;2023-05-06T06:57:23;25.17;;;17.70;;
15230;SDS011;32569;51.762;8.564;2023-05-06T06:59:49;22.63;;;16.40;;
15230;SDS011;32569;51.762;8.564;2023-05-06T07:02:17;23.50;;;16.67;;
15230;SDS011;32569;51.762;8.564;2023-05-06T07:04:45;25.20;;;18.40;;
15230;SDS011;32569;51.762;8.564;2023-05-06T07:07:12;25.07;;;17.73;;
15230;SDS011;32569;51.762;8.564;2023-05-06T07:09:39;25.70;;;17.47;;
15230;SDS011;32569;51.762;8.564;2023-05-06T07:12:06;23.07;;;16.77;;
15230;SDS011;32569;51.762;8.564;2023-05-06T07:14:33;23.27;;;16.97;;
15230;SDS011;32569;51.762;8.564;2023-05-06T07:16:59;25.80;;;17.77;;
15230;SDS011;32569;51.762;8.564;2023-05-06T07:19:26;22.90;;;17.03;;
15230;SDS011;32569;51.762;8.564;2023-05-06T07:21:54;23.00;;;16.70;;
15230;SDS011;32569;51.762;8.564;2023-05-06T07:24:21;24.07;;;16.43;;
15230;SDS011;32569;51.762;8.564;2023-05-06T07:26:48;23.50;;;16.73;;
15230;SDS011;32569;51.762;8.564;2023-05-06T07:29:15;24.33;;;16.97;;
15230;SDS011;32569;51.762;8.564;2023-05-06T07:31:41;22.70;;;15.57;;
15230;SDS011;32569;51.762;8.564;2023-05-06T07:34:08;22.07;;;15.37;;
15230;SDS011;32569;51.762;8.564;2023-05-06T07:36:35;23.50;;;16.47;;
15230;SDS011;32569;51.762;8.564;2023-05-06T07:39:05;24.40;;;16.80;;
15230;SDS011;32569;51.762;8.564;2023-05-06T07:41:32;22.67;;;15.90;;
15230;SDS011;32569;51.762;8.564;2023-05-06T07:43:59;24.83;;;16.37;;
15230;SDS011;32569;51.762;8.564;2023-05-06T07:46:26;19.90;;;14.03;;
15230;SDS011;32569;51.762;8.564;2023-05-06T07:48:52;19.60;;;14.13;;
15230;SDS011;32569;51.762;8.564;2023-05-06T07:51:19;21.53;;;15.03;;
15230;SDS011;32569;51.762;8.564;2023-05-06T07:53:46;20.50;;;14.77;;
15230;SDS011;32569;51.762;8.564;2023-05-06T07:56:14;21.43;;;14.43;;
15230;SDS011;32569;51.762;8.564;2023-05-06T07:58:40;19.67;;;13.97;;
15230;SDS011;32569;51.762;8.564;2023-05-06T08:01:07;18.30;;;13.53;;
15230;SDS011;32569;51.762;8.564;2023-05-06T08:03:34;18.00;;;13.07;;
15230;SDS011;32569;51.762;8.564;2023-05-06T08:06:01;19.17;;;13.70;;
15230;SDS011;32569;51.762;8.564;2023-05-06T08:08:27;18.67;;;14.07;;
15230;SDS011;32569;51.762;8.564;2023-05-06T08:10:54;19.43;;;13.67;;
15230;SDS011;32569;51.762;8.564;2023-05-06T08:13:23;18.33;;;13.93;;
15230;SDS011;32569;51.762;8.564;2023-05-06T08:15:52;18.10;;;13.53;;
15230;SDS011;32569;51.762;8.564;2023-05-06T08:18:19;18.03;;;13.10;;
15230;SDS011;32569;51.762;8.564;2023-05-06T08:20:45;18.20;;;13.70;;
15230;SDS011;32569;51.762;8.564;2023-05-06T08:23:12;18.50;;;13.07;;
15230;SDS011;32569;51.762;8.564;2023-05-06T08:25:38;18.70;;;13.43;;
15230;SDS011;32569;51.762;8.564;2023-05-06T08:28:05;19.47;;;12.60;;
15230;SDS011;32569;51.762;8.564;2023-05-06T08:30:33;17.63;;;13.37;;
15230;SDS011;32569;51.762;8.564;2023-05-06T08:33:00;18.07;;;12.70;;
15230;SDS011;32569;51.762;8.564;2023-05-06T08:35:27;15.33;;;11.50;;
15230;SDS011;32569;51.762;8.564;2023-05-06T08:37:54;12.63;;;9.87;;
15230;SDS011;32569;51.762;8.564;2023-05-06T08:40:21;11.63;;;8.83;;
15230;SDS011;32569;51.762;8.564;2023-05-06T08:42:48;10.97;;;8.73;;
15230;SDS011;32569;51.762;8.564;2023-05-06T08:45:15;10.80;;;7.83;;
15230;SDS011;32569;51.762;8.564;2023-05-06T08:47:44;11.00;;;8.83;;
15230;SDS011;32569;51.762;8.564;2023-05-06T08:50:11;11.00;;;9.23;;
15230;SDS011;32569;51.762;8.564;2023-05-06T08:52:38;11.17;;;8.03;;
15230;SDS011;32569;51.762;8.564;2023-05-06T08:55:07;11.70;;;9.43;;
15230;SDS011;32569;51.762;8.564;2023-05-06T08:57:40;12.90;;;9.97;;
15230;SDS011;32569;51.762;8.564;2023-05-06T09:00:10;11.10;;;9.27;;
15230;SDS011;32569;51.762;8.564;2023-05-06T09:02:40;11.43;;;9.70;;
15230;SDS011;32569;51.762;8.564;2023-05-06T09:05:10;10.23;;;8.20;;
15230;SDS011;32569;51.762;8.564;2023-05-06T09:07:36;9.53;;;7.60;;
15230;SDS011;32569;51.762;8.564;2023-05-06T09:10:06;10.50;;;9.07;;
15230;SDS011;32569;51.762;8.564;2023-05-06T09:12:39;10.87;;;8.80;;
15230;SDS011;32569;51.762;8.564;2023-05-06T09:15:07;10.40;;;8.73;;
15230;SDS011;32569;51.762;8.564;2023-05-06T09:17:34;9.77;;;8.47;;
15230;SDS011;32569;51.762;8.564;2023-05-06T09:20:01;13.10;;;8.87;;
15230;SDS011;32569;51.762;8.564;2023-05-06T09:22:31;9.20;;;7.77;;
15230;SDS011;32569;51.762;8.564;2023-05-06T09:24:58;12.37;;;8.00;;
15230;SDS011;32569;51.762;8.564;2023-05-06T09:27:25;9.27;;;7.27;;
15230;SDS011;32569;51.762;8.564;2023-05-06T09:29:58;7.43;;;6.60;;
15230;SDS011;32569;51.762;8.564;2023-05-06T09:32:26;8.73;;;7.20;;
15230;SDS011;32569;51.762;8.564;2023-05-06T09:34:53;8.37;;;7.33;;
15230;SDS011;32569;51.762;8.564;2023-05-06T09:37:20;7.77;;;6.03;;
15230;SDS011;32569;51.762;8.564;2023-05-06T09:39:48;7.03;;;5.70;;
15230;SDS011;32569;51.762;8.564;2023-05-06T09:42:20;5.37;;;4.63;;
15230;SDS011;32569;51.762;8.564;2023-05-06T09:44:48;5.60;;;5.00;;
15230;SDS011;32569;51.762;8.564;2023-05-06T09:47:16;4.90;;;4.40;;
15230;SDS011;32569;51.762;8.564;2023-05-06T09:49:43;4.77;;;3.90;;
15230;SDS011;32569;51.762;8.564;2023-05-06T09:52:10;3.90;;;3.40;;
15230;SDS011;32569;51.762;8.564;2023-05-06T09:54:37;4.33;;;3.93;;
15230;SDS011;32569;51.762;8.564;2023-05-06T09:57:06;2.87;;;2.57;;
15230;SDS011;32569;51.762;8.564;2023-05-06T09:59:37;3.70;;;2.77;;
15230;SDS011;32569;51.762;8.564;2023-05-06T10:02:04;3.70;;;2.77;;
15230;SDS011;32569;51.762;8.564;2023-05-06T10:04:31;2.60;;;2.40;;
15230;SDS011;32569;51.762;8.564;2023-05-06T10:07:00;2.90;;;2.43;;
15230;SDS011;32569;51.762;8.564;2023-05-06T10:09:29;2.87;;;2.27;;
15230;SDS011;32569;51.762;8.564;2023-05-06T10:11:58;3.30;;;3.00;;
15230;SDS011;32569;51.762;8.564;2023-05-06T10:14:27;2.97;;;2.73;;
15230;SDS011;32569;51.762;8.564;2023-05-06T10:16:54;3.87;;;2.83;;
15230;SDS011;32569;51.762;8.564;2023-05-06T10:19:22;3.20;;;2.77;;
15230;SDS011;32569;51.762;8.564;2023-05-06T10:21:51;3.07;;;2.73;;
15230;SDS011;32569;51.762;8.564;2023-05-06T10:24:24;2.90;;;2.60;;
15230;SDS011;32569;51.762;8.564;2023-05-06T10:26:57;3.23;;;2.67;;
15230;SDS011;32569;51.762;8.564;2023-05-06T10:29:30;2.80;;;2.60;;
15230;SDS011;32569;51.762;8.564;2023-05-06T10:31:59;3.27;;;2.77;;
15230;SDS011;32569;51.762;8.564;2023-05-06T10:34:28;3.10;;;2.80;;
15230;SDS011;32569;51.762;8.564;2023-05-06T10:37:01;4.23;;;2.60;;
15230;SDS011;32569;51.762;8.564;2023-05-06T10:39:29;2.90;;;2.60;;
15230;SDS011;32569;51.762;8.564;2023-05-06T10:41:56;3.83;;;3.40;;
15230;SDS011;32569;51.762;8.564;2023-05-06T10:47:25;4.97;;;3.20;;
15230;SDS011;32569;51.762;8.564;2023-05-06T10:52:45;3.53;;;2.83;;
15230;SDS011;32569;51.762;8.564;2023-05-06T10:55:26;2.80;;;2.60;;
15230;SDS011;32569;51.762;8.564;2023-05-06T10:57:55;3.70;;;3.27;;
15230;SDS011;32569;51.762;8.564;2023-05-06T11:00:26;3.53;;;3.00;;
15230;SDS011;32569;51.762;8.564;2023-05-06T11:02:56;3.60;;;3.07;;
15230;SDS011;32569;51.762;8.564;2023-05-06T11:05:25;3.63;;;3.30;;
15230;SDS011;32569;51.762;8.564;2023-05-06T11:07:52;3.83;;;3.50;;
15230;SDS011;32569;51.762;8.564;2023-05-06T11:10:33;3.60;;;3.30;;
15230;SDS011;32569;51.762;8.564;2023-05-06T11:15:47;4.30;;;3.30;;
15230;SDS011;32569;51.762;8.564;2023-05-06T11:24:05;3.73;;;3.30;;
15230;SDS011;32569;51.762;8.564;2023-05-06T11:26:33;3.90;;;3.37;;
15230;SDS011;32569;51.762;8.564;2023-05-06T11:29:00;3.20;;;2.90;;
15230;SDS011;32569;51.762;8.564;2023-05-06T11:31:30;3.50;;;3.20;;
15230;SDS011;32569;51.762;8.564;2023-05-06T11:34:07;4.60;;;3.33;;
15230;SDS011;32569;51.762;8.564;2023-05-06T11:36:36;3.83;;;3.07;;
15230;SDS011;32569;51.762;8.564;2023-05-06T11:39:11;4.33;;;3.37;;
15230;SDS011;32569;51.762;8.564;2023-05-06T11:41:38;4.53;;;3.37;;
15230;SDS011;32569;51.762;8.564;2023-05-06T11:44:06;4.47;;;3.80;;
15230;SDS011;32569;51.762;8.564;2023-05-06T11:46:34;3.50;;;3.20;;
15230;SDS011;32569;51.762;8.564;2023-05-06T11:49:01;4.10;;;3.30;;
15230;SDS011;32569;51.762;8.564;2023-05-06T11:51:28;4.10;;;3.50;;
15230;SDS011;32569;51.762;8.564;2023-05-06T11:54:05;5.03;;;3.33;;
15230;SDS011;32569;51.762;8.564;2023-05-06T11:56:43;5.40;;;3.73;;
15230;SDS011;32569;51.762;8.564;2023-05-06T11:59:10;4.33;;;3.17;;
15230;SDS011;32569;51.762;8.564;2023-05-06T12:01:40;4.30;;;3.40;;
15230;SDS011;32569;51.762;8.564;2023-05-06T12:04:08;4.07;;;2.87;;
15230;SDS011;32569;51.762;8.564;2023-05-06T12:06:36;3.47;;;2.90;;
15230;SDS011;32569;51.762;8.564;2023-05-06T12:09:04;3.00;;;2.70;;
15230;SDS011;32569;51.762;8.564;2023-05-06T12:11:32;2.87;;;2.53;;
15230;SDS011;32569;51.762;8.564;2023-05-06T12:13:59;3.27;;;2.77;;
15230;SDS011;32569;51.762;8.564;2023-05-06T12:16:27;3.40;;;2.60;;
15230;SDS011;32569;51.762;8.564;2023-05-06T12:18:55;3.33;;;3.03;;
15230;SDS011;32569;51.762;8.564;2023-05-06T12:21:22;3.03;;;2.70;;
15230;SDS011;32569;51.762;8.564;2023-05-06T12:23:50;10.30;;;9.10;;
15230;SDS011;32569;51.762;8.564;2023-05-06T12:26:17;4.43;;;2.90;;
15230;SDS011;32569;51.762;8.564;2023-05-06T12:28:45;2.07;;;1.97;;
15230;SDS011;32569;51.762;8.564;2023-05-06T12:31:18;3.17;;;2.37;;
15230;SDS011;32569;51.762;8.564;2023-05-06T12:33:45;4.07;;;2.40;;
15230;SDS011;32569;51.762;8.564;2023-05-06T12:36:15;3.57;;;2.50;;
15230;SDS011;32569;51.762;8.564;2023-05-06T12:38:49;2.40;;;2.17;;
15230;SDS011;32569;51.762;8.564;2023-05-06T12:41:16;2.63;;;2.27;;
15230;SDS011;32569;51.762;8.564;2023-05-06T12:43:44;4.53;;;2.70;;
15230;SDS011;32569;51.762;8.564;2023-05-06T12:46:10;2.57;;;2.37;;
15230;SDS011;32569;51.762;8.564;2023-05-06T12:48:37;3.33;;;2.30;;
15230;SDS011;32569;51.762;8.564;2023-05-06T12:51:18;2.73;;;2.30;;
15230;SDS011;32569;51.762;8.564;2023-05-06T12:53:45;2.70;;;2.50;;
15230;SDS011;32569;51.762;8.564;2023-05-06T12:56:12;2.57;;;2.37;;
15230;SDS011;32569;51.762;8.564;2023-05-06T12:58:39;2.63;;;2.10;;
15230;SDS011;32569;51.762;8.564;2023-05-06T13:01:06;3.60;;;2.33;;
15230;SDS011;32569;51.762;8.564;2023-05-06T13:03:33;2.23;;;2.03;;
15230;SDS011;32569;51.762;8.564;2023-05-06T13:06:00;3.33;;;2.37;;
15230;SDS011;32569;51.762;8.564;2023-05-06T13:08:28;2.70;;;2.43;;
15230;SDS011;32569;51.762;8.564;2023-05-06T13:10:55;3.93;;;2.30;;
15230;SDS011;32569;51.762;8.564;2023-05-06T13:13:25;3.70;;;2.77;;
15230;SDS011;32569;51.762;8.564;2023-05-06T13:15:52;2.27;;;1.90;;
15230;SDS011;32569;51.762;8.564;2023-05-06T13:18:19;2.53;;;2.27;;
15230;SDS011;32569;51.762;8.564;2023-05-06T13:20:46;3.03;;;1.93;;
15230;SDS011;32569;51.762;8.564;2023-05-06T13:23:12;2.97;;;1.90;;
15230;SDS011;32569;51.762;8.564;2023-05-06T13:25:40;2.47;;;2.10;;
15230;SDS011;32569;51.762;8.564;2023-05-06T13:28:07;2.47;;;2.27;;
15230;SDS011;32569;51.762;8.564;2023-05-06T13:30:34;1.90;;;1.80;;
15230;SDS011;32569;51.762;8.564;2023-05-06T13:33:01;3.73;;;2.40;;
15230;SDS011;32569;51.762;8.564;2023-05-06T13:35:27;2.27;;;1.90;;
15230;SDS011;32569;51.762;8.564;2023-05-06T13:37:54;4.47;;;2.23;;
15230;SDS011;32569;51.762;8.564;2023-05-06T13:40:21;3.10;;;2.30;;
15230;SDS011;32569;51.762;8.564;2023-05-06T13:42:48;2.47;;;2.23;;
15230;SDS011;32569;51.762;8.564;2023-05-06T13:45:15;3.30;;;2.00;;
15230;SDS011;32569;51.762;8.564;2023-05-06T13:47:42;3.23;;;1.70;;
15230;SDS011;32569;51.762;8.564;2023-05-06T13:50:09;3.90;;;2.43;;
15230;SDS011;32569;51.762;8.564;2023-05-06T13:52:35;2.70;;;2.40;;
15230;SDS011;32569;51.762;8.564;2023-05-06T13:55:02;2.40;;;2.13;;
15230;SDS011;32569;51.762;8.564;2023-05-06T13:57:29;2.70;;;1.60;;
15230;SDS011;32569;51.762;8.564;2023-05-06T13:59:57;2.50;;;1.50;;
15230;SDS011;32569;51.762;8.564;2023-05-06T14:02:24;2.00;;;1.60;;
15230;SDS011;32569;51.762;8.564;2023-05-06T14:04:51;1.73;;;1.50;;
15230;SDS011;32569;51.762;8.564;2023-05-06T14:07:19;2.83;;;1.90;;
15230;SDS011;32569;51.762;8.564;2023-05-06T14:09:45;3.43;;;1.70;;
15230;SDS011;32569;51.762;8.564;2023-05-06T14:12:12;2.87;;;1.80;;
15230;SDS011;32569;51.762;8.564;2023-05-06T14:14:38;4.30;;;1.60;;
15230;SDS011;32569;51.762;8.564;2023-05-06T14:17:06;1.53;;;1.43;;
15230;SDS011;32569;51.762;8.564;2023-05-06T14:19:34;2.43;;;2.23;;
15230;SDS011;32569;51.762;8.564;2023-05-06T14:22:00;2.77;;;1.73;;
15230;SDS011;32569;51.762;8.564;2023-05-06T14:24:27;2.20;;;1.70;;
15230;SDS011;32569;51.762;8.564;2023-05-06T14:26:54;2.23;;;1.83;;
15230;SDS011;32569;51.762;8.564;2023-05-06T14:29:20;3.43;;;2.30;;
15230;SDS011;32569;51.762;8.564;2023-05-06T14:31:47;1.80;;;1.70;;
15230;SDS011;32569;51.762;8.564;2023-05-06T14:34:15;1.77;;;1.67;;
15230;SDS011;32569;51.762;8.564;2023-05-06T14:36:41;2.20;;;1.97;;
15230;SDS011;32569;51.762;8.564;2023-05-06T14:39:08;2.13;;;1.87;;
15230;SDS011;32569;51.762;8.564;2023-05-06T14:41:35;2.73;;;2.00;;
15230;SDS011;32569;51.762;8.564;2023-05-06T14:44:01;1.90;;;1.63;;
15230;SDS011;32569;51.762;8.564;2023-05-06T14:46:28;2.70;;;1.80;;
15230;SDS011;32569;51.762;8.564;2023-05-06T14:48:55;1.70;;;1.60;;